Time;durP1;ratioP1;P1;durP2;ratioP2;P2;SDS_P1;SDS_P2;PMS_P1;PMS_P2;Temp;Humidity;BMP_temperature;BMP_pressure;BME280_temperature;BME280_humidity;BME280_pressure;Samples;Min_cycle;Max_cycle;Signal;HPM_P1;HPM_P2
2021/07/10 00:00:24;;;;;;;32.23;20.97;;;;;;;;;;5028824;28;20037;-65
2021/07/10 00:02:49;;;;;;;34.07;20.43;;;;;;;;;;5029963;28;20329;-65
2021/07/10 00:05:16;;;;;;;29.37;20.40;;;;;;;;;;5029092;28;20307;-65
2021/07/10 00:07:41;;;;;;;26.55;19.63;;;;;;;;;;5029516;28;20628;-65
2021/07/10 00:10:07;;;;;;;34.25;20.63;;;;;;;;;;5029388;28;20032;-65
2021/07/10 00:12:33;;;;;;;34.95;20.77;;;;;;;;;;5030064;28;20378;-65
2021/07/10 00:14:58;;;;;;;32.20;19.87;;;;;;;;;;5029100;28;20033;-65
2021/07/10 00:17:23;;;;;;;30.63;20.13;;;;;;;;;;5029626;28;20307;-65
2021/07/10 00:19:52;;;;;;;35.13;20.95;;;;;;;;;;5029823;28;20398;-65
2021/07/10 00:22:18;;;;;;;34.75;19.85;;;;;;;;;;5029710;28;20026;-65
2021/07/10 00:24:43;;;;;;;26.73;19.00;;;;;;;;;;5029853;28;20087;-65
2021/07/10 00:27:08;;;;;;;31.70;20.25;;;;;;;;;;5029536;28;20021;-64
2021/07/10 00:29:33;;;;;;;35.67;18.83;;;;;;;;;;5029871;28;20029;-65
2021/07/10 00:31:59;;;;;;;31.50;18.80;;;;;;;;;;5029806;28;20746;-65
2021/07/10 00:34:24;;;;;;;27.20;18.77;;;;;;;;;;5029220;28;20275;-65
2021/07/10 00:36:49;;;;;;;31.03;17.37;;;;;;;;;;5029063;28;20755;-65
2021/07/10 00:39:16;;;;;;;28.23;18.30;;;;;;;;;;5029040;28;20264;-65
2021/07/10 00:41:41;;;;;;;28.17;18.77;;;;;;;;;;5029744;28;20279;-65
2021/07/10 00:44:06;;;;;;;29.60;19.45;;;;;;;;;;5028834;28;20025;-65
2021/07/10 00:46:31;;;;;;;35.35;19.27;;;;;;;;;;5032668;28;20406;-65
2021/07/10 00:48:56;;;;;;;37.10;18.57;;;;;;;;;;5032731;28;20017;-64
2021/07/10 00:51:22;;;;;;;30.00;18.23;;;;;;;;;;5032765;28;20616;-65
2021/07/10 00:53:48;;;;;;;38.38;19.75;;;;;;;;;;5032914;28;20272;-64
2021/07/10 00:56:13;;;;;;;35.50;19.42;;;;;;;;;;5032727;28;20025;-65
2021/07/10 00:58:38;;;;;;;37.78;20.45;;;;;;;;;;5033401;28;20358;-65
2021/07/10 01:01:04;;;;;;;35.78;20.42;;;;;;;;;;5032967;28;20429;-65
2021/07/10 01:03:31;;;;;;;29.52;19.33;;;;;;;;;;5032847;28;20096;-65
2021/07/10 01:05:56;;;;;;;36.15;19.15;;;;;;;;;;5032633;28;20404;-64
2021/07/10 01:08:21;;;;;;;36.20;18.73;;;;;;;;;;5032722;28;20105;-65
2021/07/10 01:10:47;;;;;;;31.50;18.73;;;;;;;;;;5033164;28;20268;-65
2021/07/10 01:13:12;;;;;;;30.35;19.25;;;;;;;;;;5032237;28;20271;-65
2021/07/10 01:15:37;;;;;;;36.72;20.73;;;;;;;;;;5032826;28;20021;-65
2021/07/10 01:18:02;;;;;;;31.13;19.15;;;;;;;;;;5032691;28;20390;-65
2021/07/10 01:20:28;;;;;;;33.72;19.70;;;;;;;;;;5033081;28;20033;-65
2021/07/10 01:22:56;;;;;;;32.00;20.05;;;;;;;;;;5033737;28;20026;-65
2021/07/10 01:25:22;;;;;;;31.23;19.95;;;;;;;;;;5017325;28;20086;-65
2021/07/10 01:27:48;;;;;;;27.73;19.08;;;;;;;;;;5032458;28;20104;-65
2021/07/10 01:30:17;;;;;;;27.30;17.58;;;;;;;;;;5031732;28;20025;-64
2021/07/10 01:32:44;;;;;;;30.87;18.43;;;;;;;;;;5031787;28;20025;-65
2021/07/10 01:35:09;;;;;;;29.40;18.73;;;;;;;;;;5031995;28;20029;-65
2021/07/10 01:37:35;;;;;;;31.80;18.60;;;;;;;;;;5031940;28;20527;-65
2021/07/10 01:40:00;;;;;;;27.98;18.83;;;;;;;;;;5031827;28;20033;-65
2021/07/10 01:42:25;;;;;;;33.53;19.55;;;;;;;;;;5032164;28;20091;-65
2021/07/10 01:44:51;;;;;;;35.77;17.80;;;;;;;;;;5032114;28;20029;-65
2021/07/10 01:47:17;;;;;;;24.00;17.38;;;;;;;;;;5031729;28;20268;-65
2021/07/10 01:52:45;;;;;;;26.52;17.85;;;;;;;;;;5030967;28;20048;-65
2021/07/10 01:55:11;;;;;;;38.80;17.75;;;;;;;;;;5032003;28;20467;-65
2021/07/10 01:57:36;;;;;;;32.00;17.83;;;;;;;;;;5031678;28;20398;-65
2021/07/10 02:00:08;;;;;;;32.55;18.20;;;;;;;;;;5031197;28;20021;-65
2021/07/10 02:02:33;;;;;;;30.80;17.38;;;;;;;;;;5031685;28;20034;-65
2021/07/10 02:04:59;;;;;;;28.80;17.53;;;;;;;;;;5031044;28;20111;-65
2021/07/10 02:07:24;;;;;;;35.60;18.20;;;;;;;;;;5031546;28;20354;-65
2021/07/10 02:09:49;;;;;;;29.15;16.88;;;;;;;;;;5031359;28;20280;-65
2021/07/10 02:12:15;;;;;;;34.42;17.73;;;;;;;;;;5031066;28;20046;-65
2021/07/10 02:14:41;;;;;;;31.17;20.13;;;;;;;;;;5030266;28;20488;-65
2021/07/10 02:17:06;;;;;;;30.05;17.92;;;;;;;;;;5031321;28;20271;-65
2021/07/10 02:19:32;;;;;;;28.67;18.45;;;;;;;;;;5031170;28;20022;-65
2021/07/10 02:21:57;;;;;;;27.05;16.63;;;;;;;;;;5031380;28;20024;-65
2021/07/10 02:24:22;;;;;;;35.20;19.17;;;;;;;;;;5031259;28;20098;-65
2021/07/10 02:26:48;;;;;;;24.63;16.60;;;;;;;;;;5031402;28;20017;-65
2021/07/10 02:29:13;;;;;;;26.58;17.13;;;;;;;;;;5031072;28;20286;-65
2021/07/10 02:31:38;;;;;;;25.30;16.92;;;;;;;;;;5031676;28;20433;-65
2021/07/10 02:34:04;;;;;;;27.20;17.23;;;;;;;;;;5031051;28;20033;-65
2021/07/10 02:36:29;;;;;;;22.40;16.38;;;;;;;;;;5030818;28;20264;-65
2021/07/10 02:38:55;;;;;;;26.17;16.88;;;;;;;;;;5031584;28;20413;-65
2021/07/10 02:41:20;;;;;;;32.28;18.65;;;;;;;;;;5031241;28;20091;-65
2021/07/10 02:43:45;;;;;;;25.00;16.03;;;;;;;;;;5030599;28;20478;-65
2021/07/10 02:46:11;;;;;;;26.70;17.48;;;;;;;;;;5030287;28;20350;-65
2021/07/10 02:48:36;;;;;;;29.13;17.80;;;;;;;;;;5030489;28;20092;-65
2021/07/10 02:51:01;;;;;;;30.53;17.70;;;;;;;;;;5031192;28;20652;-65
2021/07/10 02:53:26;;;;;;;27.00;16.65;;;;;;;;;;5029675;28;20272;-65
2021/07/10 02:55:51;;;;;;;25.85;16.63;;;;;;;;;;5030629;28;20029;-65
2021/07/10 02:58:17;;;;;;;29.30;16.97;;;;;;;;;;5030696;28;20075;-65
2021/07/10 03:00:42;;;;;;;29.25;17.85;;;;;;;;;;5029931;28;20913;-65
2021/07/10 03:03:07;;;;;;;25.95;17.13;;;;;;;;;;5030687;28;20053;-65
2021/07/10 03:05:33;;;;;;;26.50;17.13;;;;;;;;;;5029869;28;20024;-65
2021/07/10 03:07:59;;;;;;;29.95;18.55;;;;;;;;;;5030332;28;20033;-65
2021/07/10 03:10:27;;;;;;;29.50;18.67;;;;;;;;;;5031032;28;20528;-65
2021/07/10 03:12:52;;;;;;;40.28;19.75;;;;;;;;;;5030445;28;20401;-65
2021/07/10 03:15:18;;;;;;;37.53;20.08;;;;;;;;;;5030488;28;20032;-65
2021/07/10 03:17:43;;;;;;;37.35;20.27;;;;;;;;;;5030162;28;20032;-65
2021/07/10 03:20:09;;;;;;;34.85;19.80;;;;;;;;;;5030675;28;20400;-65
2021/07/10 03:22:34;;;;;;;32.55;18.77;;;;;;;;;;5028489;28;20029;-65
2021/07/10 03:25:00;;;;;;;35.15;19.40;;;;;;;;;;5031470;28;20078;-65
2021/07/10 03:27:25;;;;;;;27.98;17.48;;;;;;;;;;5029474;28;20025;-65
2021/07/10 03:29:51;;;;;;;27.10;17.53;;;;;;;;;;5030192;28;20052;-64
2021/07/10 03:32:16;;;;;;;33.10;19.37;;;;;;;;;;5029732;28;20613;-65
2021/07/10 03:34:41;;;;;;;30.90;18.90;;;;;;;;;;5030094;28;20315;-65
2021/07/10 03:37:06;;;;;;;28.73;18.70;;;;;;;;;;5029782;28;20296;-65
2021/07/10 03:39:31;;;;;;;34.87;19.03;;;;;;;;;;5030147;28;20775;-65
2021/07/10 03:41:56;;;;;;;33.80;18.55;;;;;;;;;;5030236;28;20275;-65
2021/07/10 03:44:22;;;;;;;26.67;17.33;;;;;;;;;;5030256;28;20025;-65
2021/07/10 03:46:47;;;;;;;26.47;17.60;;;;;;;;;;5029129;28;20029;-65
2021/07/10 03:49:12;;;;;;;31.58;18.60;;;;;;;;;;5029741;28;20256;-65
2021/07/10 03:51:38;;;;;;;29.17;17.83;;;;;;;;;;5030315;28;20025;-65
2021/07/10 03:54:03;;;;;;;35.00;18.73;;;;;;;;;;5029379;28;20120;-65
2021/07/10 03:56:28;;;;;;;26.17;16.90;;;;;;;;;;5029923;28;20053;-65
2021/07/10 03:58:54;;;;;;;32.00;18.47;;;;;;;;;;5029875;28;20042;-65
2021/07/10 04:01:19;;;;;;;27.63;17.90;;;;;;;;;;5028888;28;20264;-65
2021/07/10 04:03:44;;;;;;;28.77;18.45;;;;;;;;;;5029783;28;20564;-65
2021/07/10 04:06:09;;;;;;;32.20;19.50;;;;;;;;;;5030016;28;20021;-65
2021/07/10 04:08:34;;;;;;;30.17;18.93;;;;;;;;;;5029517;28;20075;-65
2021/07/10 04:10:59;;;;;;;30.75;19.42;;;;;;;;;;5030298;28;20264;-65
2021/07/10 04:13:25;;;;;;;37.15;19.73;;;;;;;;;;5028054;28;20028;-65
2021/07/10 04:15:50;;;;;;;36.07;20.50;;;;;;;;;;5028893;28;20022;-65
2021/07/10 04:18:15;;;;;;;32.47;18.80;;;;;;;;;;5029376;28;20755;-65
2021/07/10 04:20:40;;;;;;;33.75;18.60;;;;;;;;;;5033543;28;20038;-65
2021/07/10 04:23:05;;;;;;;34.30;19.97;;;;;;;;;;5033121;28;21807;-66
2021/07/10 04:25:31;;;;;;;29.17;17.43;;;;;;;;;;5033212;28;20349;-65
2021/07/10 04:27:56;;;;;;;29.08;19.45;;;;;;;;;;5034503;28;20598;-65
2021/07/10 04:30:22;;;;;;;27.42;17.13;;;;;;;;;;5044982;28;20040;-65
2021/07/10 04:32:47;;;;;;;24.23;16.80;;;;;;;;;;5033178;28;20025;-66
2021/07/10 04:35:12;;;;;;;33.63;17.15;;;;;;;;;;5032955;28;20061;-66
2021/07/10 04:37:38;;;;;;;30.27;17.52;;;;;;;;;;5033826;28;20029;-65
2021/07/10 04:40:04;;;;;;;26.30;17.38;;;;;;;;;;5033278;28;20556;-66
2021/07/10 04:42:29;;;;;;;28.67;17.52;;;;;;;;;;5033521;28;20025;-65
2021/07/10 04:44:55;;;;;;;30.58;18.33;;;;;;;;;;5032920;28;20048;-65
2021/07/10 04:47:21;;;;;;;36.28;18.63;;;;;;;;;;5032041;28;20053;-66
2021/07/10 04:49:46;;;;;;;31.85;19.70;;;;;;;;;;5033682;28;20057;-66
2021/07/10 04:52:11;;;;;;;34.40;20.42;;;;;;;;;;5033142;28;20021;-65
2021/07/10 04:54:37;;;;;;;35.25;20.33;;;;;;;;;;5032887;28;20557;-65
2021/07/10 04:57:02;;;;;;;36.53;19.83;;;;;;;;;;5033095;28;20621;-65
2021/07/10 04:59:27;;;;;;;29.40;19.33;;;;;;;;;;5032227;28;20274;-65
2021/07/10 05:01:52;;;;;;;36.23;21.23;;;;;;;;;;5032537;28;20029;-66
2021/07/10 05:04:17;;;;;;;29.73;18.40;;;;;;;;;;5031393;28;20807;-65
2021/07/10 05:06:44;;;;;;;36.03;17.77;;;;;;;;;;5033121;28;20265;-66
2021/07/10 05:09:09;;;;;;;32.63;16.70;;;;;;;;;;5032521;28;20018;-66
2021/07/10 05:11:34;;;;;;;26.75;16.35;;;;;;;;;;5033061;28;20036;-65
2021/07/10 05:13:59;;;;;;;25.77;16.53;;;;;;;;;;5066835;22;20094;-66
2021/07/10 05:16:25;;;;;;;29.75;17.10;;;;;;;;;;5072376;28;20303;-66
2021/07/10 05:18:50;;;;;;;24.50;15.80;;;;;;;;;;5072345;28;20111;-66
2021/07/10 05:21:15;;;;;;;27.55;15.85;;;;;;;;;;5070964;28;20105;-66
2021/07/10 05:23:41;;;;;;;26.23;15.88;;;;;;;;;;5072105;28;20111;-66
2021/07/10 05:26:09;;;;;;;25.23;15.40;;;;;;;;;;5069940;28;20052;-66
2021/07/10 05:28:34;;;;;;;21.02;13.80;;;;;;;;;;5056724;28;20048;-66
2021/07/10 05:30:59;;;;;;;21.90;15.37;;;;;;;;;;5071290;28;21769;-66
2021/07/10 05:33:24;;;;;;;23.73;12.40;;;;;;;;;;5071972;28;20267;-66
2021/07/10 05:35:50;;;;;;;23.35;13.60;;;;;;;;;;5071946;28;20277;-66
2021/07/10 05:38:17;;;;;;;18.85;13.73;;;;;;;;;;5072086;28;20021;-66
2021/07/10 05:40:42;;;;;;;20.90;13.05;;;;;;;;;;5071018;28;20024;-66
2021/07/10 05:43:07;;;;;;;25.50;14.68;;;;;;;;;;5070924;28;20020;-66
2021/07/10 05:45:33;;;;;;;19.08;13.73;;;;;;;;;;5071823;28;20027;-66
2021/07/10 05:47:58;;;;;;;21.45;12.75;;;;;;;;;;5067385;28;20513;-66
2021/07/10 05:50:23;;;;;;;25.10;14.00;;;;;;;;;;5069873;28;20020;-66
2021/07/10 05:52:48;;;;;;;19.27;13.52;;;;;;;;;;5066406;28;20019;-66
2021/07/10 05:55:14;;;;;;;17.27;11.97;;;;;;;;;;5071662;28;20561;-66
2021/07/10 05:57:39;;;;;;;19.63;13.23;;;;;;;;;;5070787;28;20281;-66
2021/07/10 06:00:05;;;;;;;14.48;11.45;;;;;;;;;;5069493;28;20060;-66
2021/07/10 06:02:30;;;;;;;19.80;11.85;;;;;;;;;;5066108;28;20032;-66
2021/07/10 06:04:56;;;;;;;22.33;13.00;;;;;;;;;;5068773;28;20051;-66
2021/07/10 06:07:21;;;;;;;19.60;10.47;;;;;;;;;;5069188;28;20279;-66
2021/07/10 06:09:46;;;;;;;17.02;11.95;;;;;;;;;;5069883;28;20354;-66
2021/07/10 06:12:11;;;;;;;20.90;12.20;;;;;;;;;;5069636;28;20129;-66
2021/07/10 06:14:36;;;;;;;17.43;11.03;;;;;;;;;;5068842;28;20295;-66
2021/07/10 06:17:02;;;;;;;24.77;11.40;;;;;;;;;;5065583;28;20271;-66
2021/07/10 06:19:27;;;;;;;18.98;12.43;;;;;;;;;;5069157;28;20506;-66
2021/07/10 06:21:53;;;;;;;19.20;11.95;;;;;;;;;;5069648;28;20033;-66
2021/07/10 06:24:19;;;;;;;21.75;12.15;;;;;;;;;;5068729;28;20028;-66
2021/07/10 06:26:44;;;;;;;27.40;12.35;;;;;;;;;;5068326;28;20040;-66
2021/07/10 06:29:09;;;;;;;18.65;12.23;;;;;;;;;;5066251;28;20416;-66
2021/07/10 06:31:34;;;;;;;18.20;12.02;;;;;;;;;;5068095;28;20059;-66
2021/07/10 06:34:00;;;;;;;15.98;10.90;;;;;;;;;;5068942;28;20028;-66
2021/07/10 06:36:26;;;;;;;18.20;10.60;;;;;;;;;;5065265;28;20056;-66
2021/07/10 06:38:51;;;;;;;15.48;10.57;;;;;;;;;;5066942;28;20099;-66
2021/07/10 06:41:16;;;;;;;19.17;11.83;;;;;;;;;;5068703;28;20040;-66
2021/07/10 06:43:41;;;;;;;22.83;10.57;;;;;;;;;;5067355;28;20381;-66
2021/07/10 06:46:07;;;;;;;14.07;9.63;;;;;;;;;;5066476;28;20032;-66
2021/07/10 06:48:33;;;;;;;14.40;10.85;;;;;;;;;;5067874;28;20259;-66
2021/07/10 06:50:58;;;;;;;17.45;9.75;;;;;;;;;;5068542;28;20028;-66
2021/07/10 06:53:23;;;;;;;18.90;9.97;;;;;;;;;;5069491;28;20029;-66
2021/07/10 06:55:49;;;;;;;12.70;9.18;;;;;;;;;;5062054;28;20305;-64
2021/07/10 06:58:14;;;;;;;11.88;8.50;;;;;;;;;;5067241;28;20016;-65
2021/07/10 07:00:39;;;;;;;13.55;9.80;;;;;;;;;;5068889;28;20029;-65
2021/07/10 07:03:04;;;;;;;15.83;9.63;;;;;;;;;;5068683;28;20035;-65
2021/07/10 07:05:30;;;;;;;15.13;8.80;;;;;;;;;;5063196;28;20368;-65
2021/07/10 07:07:55;;;;;;;13.32;9.68;;;;;;;;;;5064745;28;20266;-65
2021/07/10 07:10:20;;;;;;;14.90;8.43;;;;;;;;;;5067874;28;20028;-65
2021/07/10 07:12:47;;;;;;;17.73;9.23;;;;;;;;;;5068463;28;20105;-66
2021/07/10 07:15:12;;;;;;;12.98;8.70;;;;;;;;;;5068655;28;20773;-65
2021/07/10 07:17:37;;;;;;;11.55;7.68;;;;;;;;;;5067317;28;20108;-65
2021/07/10 07:20:04;;;;;;;12.57;8.55;;;;;;;;;;5063921;28;20039;-66
2021/07/10 07:22:29;;;;;;;15.57;8.77;;;;;;;;;;5065450;28;20043;-66
2021/07/10 07:24:54;;;;;;;13.00;8.87;;;;;;;;;;5068050;28;20484;-66
2021/07/10 07:27:19;;;;;;;13.90;8.65;;;;;;;;;;5068390;28;20275;-66
2021/07/10 07:29:44;;;;;;;10.68;8.30;;;;;;;;;;5067005;28;20039;-66
2021/07/10 07:32:10;;;;;;;12.60;8.00;;;;;;;;;;5068001;28;20027;-64
2021/07/10 07:34:35;;;;;;;12.05;8.45;;;;;;;;;;5067551;28;20278;-66
2021/07/10 07:37:00;;;;;;;15.33;8.53;;;;;;;;;;5068440;28;20021;-66
2021/07/10 07:39:25;;;;;;;14.17;7.90;;;;;;;;;;5066958;28;20718;-66
2021/07/10 07:41:51;;;;;;;11.63;8.05;;;;;;;;;;5068230;28;20826;-66
2021/07/10 07:44:16;;;;;;;16.10;7.97;;;;;;;;;;5064659;28;20488;-66
2021/07/10 07:46:41;;;;;;;11.20;7.88;;;;;;;;;;5067676;28;20024;-66
2021/07/10 07:49:06;;;;;;;11.13;8.43;;;;;;;;;;5061633;28;20100;-66
2021/07/10 07:51:32;;;;;;;12.67;8.00;;;;;;;;;;5070164;28;20100;-66
2021/07/10 07:53:57;;;;;;;12.20;7.30;;;;;;;;;;5069263;28;20273;-66
2021/07/10 07:56:24;;;;;;;12.25;7.18;;;;;;;;;;5069814;28;20500;-66
2021/07/10 07:58:49;;;;;;;11.45;8.13;;;;;;;;;;5070176;28;20103;-66
2021/07/10 08:01:14;;;;;;;11.60;6.90;;;;;;;;;;5070161;28;20567;-66
2021/07/10 08:03:39;;;;;;;13.30;7.13;;;;;;;;;;5069044;28;20285;-66
2021/07/10 08:06:05;;;;;;;8.05;5.38;;;;;;;;;;5068961;28;20308;-66
2021/07/10 08:08:31;;;;;;;9.18;7.22;;;;;;;;;;5058816;28;20393;-66
2021/07/10 08:10:56;;;;;;;12.25;6.82;;;;;;;;;;5070353;28;20016;-66
2021/07/10 08:13:21;;;;;;;10.23;7.90;;;;;;;;;;5069641;28;20509;-66
2021/07/10 08:15:47;;;;;;;12.00;8.23;;;;;;;;;;5069705;28;20028;-66
2021/07/10 08:18:12;;;;;;;9.50;7.05;;;;;;;;;;5069353;28;20024;-66
2021/07/10 08:20:37;;;;;;;14.00;8.38;;;;;;;;;;5065975;28;20025;-66
2021/07/10 08:23:03;;;;;;;13.32;8.15;;;;;;;;;;5061062;28;20012;-66
2021/07/10 08:25:28;;;;;;;11.70;6.90;;;;;;;;;;5069565;28;20025;-66
2021/07/10 08:27:54;;;;;;;17.65;8.07;;;;;;;;;;5061472;28;20025;-66
2021/07/10 08:30:19;;;;;;;13.13;7.85;;;;;;;;;;5069509;28;20056;-66
2021/07/10 08:32:46;;;;;;;13.43;7.57;;;;;;;;;;5069163;28;20017;-66
2021/07/10 08:35:12;;;;;;;17.55;9.18;;;;;;;;;;5069191;28;20024;-65
2021/07/10 08:37:37;;;;;;;13.18;8.23;;;;;;;;;;5067485;28;20507;-66
2021/07/10 08:40:03;;;;;;;13.45;9.20;;;;;;;;;;5069642;28;20097;-66
2021/07/10 08:42:29;;;;;;;12.75;8.35;;;;;;;;;;5069306;28;20070;-66
2021/07/10 08:44:54;;;;;;;14.52;8.63;;;;;;;;;;5069404;28;20036;-66
2021/07/10 08:47:20;;;;;;;12.65;7.88;;;;;;;;;;5069415;28;20143;-66
2021/07/10 08:49:46;;;;;;;12.38;7.45;;;;;;;;;;5069650;28;20448;-66
2021/07/10 08:52:11;;;;;;;13.65;8.57;;;;;;;;;;5055796;28;20041;-66
2021/07/10 08:54:37;;;;;;;12.48;8.35;;;;;;;;;;5069045;28;20104;-66
2021/07/10 08:57:02;;;;;;;13.52;9.13;;;;;;;;;;5070044;28;20027;-66
2021/07/10 08:59:28;;;;;;;15.13;9.07;;;;;;;;;;5064643;28;20035;-66
2021/07/10 09:01:53;;;;;;;11.57;7.65;;;;;;;;;;5060091;28;20035;-66
2021/07/10 09:04:22;;;;;;;10.20;6.65;;;;;;;;;;5064115;28;20033;-66
2021/07/10 09:06:47;;;;;;;16.75;8.32;;;;;;;;;;5066813;28;20028;-66
2021/07/10 09:09:12;;;;;;;12.87;7.60;;;;;;;;;;5071395;28;20111;-66
2021/07/10 09:11:38;;;;;;;17.60;8.33;;;;;;;;;;5068444;28;20070;-66
2021/07/10 09:14:03;;;;;;;12.30;8.60;;;;;;;;;;5072283;28;20316;-66
2021/07/10 09:16:30;;;;;;;12.70;8.13;;;;;;;;;;5070919;28;20032;-66
2021/07/10 09:19:00;;;;;;;13.00;6.95;;;;;;;;;;5072273;28;20468;-66
2021/07/10 09:21:37;;;;;;;8.63;5.63;;;;;;;;;;5064293;28;20059;-66
2021/07/10 09:24:11;;;;;;;9.75;6.25;;;;;;;;;;5070406;28;20032;-66
2021/07/10 09:26:40;;;;;;;14.73;5.60;;;;;;;;;;5071014;28;20329;-66
2021/07/10 09:29:10;;;;;;;11.25;5.55;;;;;;;;;;5061959;28;20024;-66
2021/07/10 09:31:46;;;;;;;8.57;6.18;;;;;;;;;;5071582;28;20366;-67
2021/07/10 09:34:14;;;;;;;7.97;4.20;;;;;;;;;;5066670;28;20071;-65
2021/07/10 09:36:51;;;;;;;5.50;3.60;;;;;;;;;;5071717;28;20416;-65
2021/07/10 09:39:16;;;;;;;8.85;5.75;;;;;;;;;;5070990;28;20032;-66
2021/07/10 09:41:42;;;;;;;12.93;6.88;;;;;;;;;;5071405;28;20032;-66
2021/07/10 09:44:09;;;;;;;8.93;5.80;;;;;;;;;;5071296;28;20021;-66
2021/07/10 09:46:34;;;;;;;11.65;7.35;;;;;;;;;;5069905;28;20262;-67
2021/07/10 09:49:16;;;;;;;9.82;6.10;;;;;;;;;;5063577;28;20024;-66
2021/07/10 09:51:41;;;;;;;11.45;5.88;;;;;;;;;;5069728;28;20024;-67
2021/07/10 09:54:08;;;;;;;12.10;5.73;;;;;;;;;;5070003;28;20151;-66
2021/07/10 09:56:34;;;;;;;12.82;5.57;;;;;;;;;;5071315;28;20373;-65
2021/07/10 09:59:14;;;;;;;13.43;6.13;;;;;;;;;;5069592;28;20024;-66
2021/07/10 10:01:39;;;;;;;;;;;;;;;;;;5070359;28;20063;-66
2021/07/10 10:04:25;;;;;;;10.98;6.40;;;;;;;;;;5071061;28;19951;-65
2021/07/10 10:06:50;;;;;;;14.48;6.47;;;;;;;;;;5054784;28;20028;-65
2021/07/10 10:09:17;;;;;;;14.65;7.72;;;;;;;;;;5054374;28;20401;-66
2021/07/10 10:11:50;;;;;;;11.00;6.95;;;;;;;;;;5057092;28;20374;-65
2021/07/10 10:14:16;;;;;;;13.15;6.28;;;;;;;;;;5068574;28;20060;-66
2021/07/10 10:16:46;;;;;;;14.75;7.22;;;;;;;;;;5060872;28;20472;-66
2021/07/10 10:19:11;;;;;;;12.27;6.85;;;;;;;;;;5069459;28;20048;-67
2021/07/10 10:21:37;;;;;;;10.73;7.57;;;;;;;;;;5071012;28;20452;-66
2021/07/10 10:24:03;;;;;;;9.70;6.82;;;;;;;;;;5070990;28;20021;-65
2021/07/10 10:26:28;;;;;;;13.93;7.07;;;;;;;;;;5071567;28;20017;-65
2021/07/10 10:28:54;;;;;;;10.07;6.97;;;;;;;;;;5071486;28;20069;-65
2021/07/10 10:31:19;;;;;;;12.90;7.03;;;;;;;;;;5069306;28;20627;-64
2021/07/10 10:33:46;;;;;;;15.25;6.70;;;;;;;;;;5069294;28;20016;-65
2021/07/10 10:36:11;;;;;;;12.25;7.78;;;;;;;;;;5070835;28;20024;-64
2021/07/10 10:38:36;;;;;;;13.60;6.80;;;;;;;;;;5067022;28;20052;-65
2021/07/10 10:41:02;;;;;;;11.83;7.13;;;;;;;;;;5059254;28;20029;-65
2021/07/10 10:43:27;;;;;;;10.55;7.05;;;;;;;;;;5049979;28;20122;-64
2021/07/10 10:45:52;;;;;;;11.60;7.22;;;;;;;;;;5067528;28;20020;-65
2021/07/10 10:48:36;;;;;;;8.90;6.38;;;;;;;;;;5071470;28;20468;-64
2021/07/10 10:51:21;;;;;;;11.75;7.00;;;;;;;;;;5070949;28;20062;-65
2021/07/10 10:53:47;;;;;;;14.75;6.45;;;;;;;;;;5068182;28;20032;-65
2021/07/10 10:56:32;;;;;;;10.60;7.27;;;;;;;;;;5068802;28;20021;-65
2021/07/10 10:58:57;;;;;;;10.15;5.40;;;;;;;;;;5051794;28;20354;-65
2021/07/10 11:01:30;;;;;;;10.80;6.10;;;;;;;;;;5070352;28;20048;-65
2021/07/10 11:03:55;;;;;;;9.65;5.45;;;;;;;;;;5066083;28;20032;-65
2021/07/10 11:06:28;;;;;;;9.20;5.90;;;;;;;;;;5070607;28;20070;-65
2021/07/10 11:08:53;;;;;;;9.75;5.43;;;;;;;;;;5070718;28;20027;-65
2021/07/10 11:11:20;;;;;;;8.85;5.28;;;;;;;;;;5059167;28;20021;-65
2021/07/10 11:14:08;;;;;;;8.05;5.10;;;;;;;;;;5079904;22;20048;-64
2021/07/10 11:16:33;;;;;;;6.60;4.57;;;;;;;;;;5043065;28;20100;-65
2021/07/10 11:19:00;;;;;;;8.82;4.63;;;;;;;;;;5048782;28;20108;-65
2021/07/10 11:21:31;;;;;;;7.10;4.20;;;;;;;;;;5050511;28;20031;-65
2021/07/10 11:24:12;;;;;;;7.18;4.18;;;;;;;;;;5050537;28;20067;-65
2021/07/10 11:26:37;;;;;;;8.20;4.25;;;;;;;;;;5050305;28;20083;-64
2021/07/10 11:29:02;;;;;;;7.37;3.50;;;;;;;;;;5050302;28;20453;-65
2021/07/10 11:31:32;;;;;;;9.48;4.32;;;;;;;;;;5050749;28;20292;-64
2021/07/10 11:34:03;;;;;;;4.63;3.50;;;;;;;;;;5048518;28;20021;-65
2021/07/10 11:36:31;;;;;;;5.80;3.63;;;;;;;;;;5036473;28;20409;-64
2021/07/10 11:38:57;;;;;;;7.88;4.35;;;;;;;;;;5030598;28;20049;-65
2021/07/10 11:41:28;;;;;;;8.02;4.00;;;;;;;;;;5030655;28;20053;-64
2021/07/10 11:44:09;;;;;;;4.55;3.67;;;;;;;;;;5030575;28;20026;-65
2021/07/10 11:46:54;;;;;;;10.68;4.10;;;;;;;;;;5035789;28;20016;-64
2021/07/10 11:49:35;;;;;;;8.27;3.88;;;;;;;;;;5050082;28;20480;-65
2021/07/10 11:52:00;;;;;;;6.35;3.95;;;;;;;;;;5050177;28;20074;-65
2021/07/10 11:54:25;;;;;;;7.75;4.15;;;;;;;;;;5030574;28;20459;-64
2021/07/10 11:56:51;;;;;;;6.57;3.97;;;;;;;;;;5030150;28;20029;-65
2021/07/10 11:59:16;;;;;;;5.93;4.25;;;;;;;;;;5050243;28;20017;-65
2021/07/10 12:01:41;;;;;;;5.87;3.83;;;;;;;;;;5049186;28;20025;-65
2021/07/10 12:04:10;;;;;;;5.40;4.07;;;;;;;;;;5047875;28;20291;-65
2021/07/10 12:06:35;;;;;;;9.23;4.50;;;;;;;;;;5049346;28;20059;-64
2021/07/10 12:09:00;;;;;;;4.60;3.50;;;;;;;;;;5049602;28;20068;-65
2021/07/10 12:11:27;;;;;;;5.63;3.60;;;;;;;;;;5030669;28;20013;-65
2021/07/10 12:13:52;;;;;;;5.25;3.97;;;;;;;;;;5030232;28;20116;-65
2021/07/10 12:16:17;;;;;;;5.65;3.60;;;;;;;;;;5030212;28;20460;-65
2021/07/10 12:18:50;;;;;;;5.00;3.70;;;;;;;;;;5030084;28;20029;-65
2021/07/10 12:21:16;;;;;;;5.47;3.80;;;;;;;;;;5037228;28;20017;-65
2021/07/10 12:23:42;;;;;;;6.00;4.35;;;;;;;;;;5049989;28;20083;-64
2021/07/10 12:26:14;;;;;;;6.55;3.33;;;;;;;;;;5049291;28;20071;-64
2021/07/10 12:28:45;;;;;;;6.82;3.58;;;;;;;;;;5030163;28;20017;-64
2021/07/10 12:31:36;;;;;;;6.13;4.20;;;;;;;;;;5030331;28;20025;-65
2021/07/10 12:34:03;;;;;;;7.63;4.63;;;;;;;;;;5045393;28;20028;-65
2021/07/10 12:36:30;;;;;;;6.20;3.95;;;;;;;;;;5049514;28;20477;-65
2021/07/10 12:39:11;;;;;;;4.90;3.95;;;;;;;;;;5049987;28;20024;-65
2021/07/10 12:41:38;;;;;;;5.45;3.78;;;;;;;;;;5053942;28;20017;-65
2021/07/10 12:44:08;;;;;;;10.60;3.42;;;;;;;;;;5045026;28;20021;-65
2021/07/10 12:46:50;;;;;;;9.50;3.65;;;;;;;;;;5033320;28;20022;-65
2021/07/10 12:49:16;;;;;;;4.22;3.13;;;;;;;;;;5048101;28;20029;-64
2021/07/10 12:51:41;;;;;;;5.80;3.58;;;;;;;;;;5053682;28;20028;-64
2021/07/10 12:54:25;;;;;;;7.70;3.88;;;;;;;;;;5053317;28;20024;-65
2021/07/10 12:56:51;;;;;;;7.15;3.50;;;;;;;;;;5053337;28;20021;-65
2021/07/10 12:59:20;;;;;;;4.53;2.90;;;;;;;;;;5034138;28;20091;-65
2021/07/10 13:01:49;;;;;;;8.05;3.75;;;;;;;;;;5047785;28;20075;-64
2021/07/10 13:04:14;;;;;;;6.18;3.33;;;;;;;;;;5049674;28;20121;-65
2021/07/10 13:06:42;;;;;;;5.72;3.30;;;;;;;;;;5051966;28;20092;-65
2021/07/10 13:09:07;;;;;;;6.30;3.95;;;;;;;;;;5039824;28;20021;-65
2021/07/10 13:11:44;;;;;;;6.47;3.40;;;;;;;;;;5053542;28;20066;-65
2021/07/10 13:14:17;;;;;;;7.20;3.90;;;;;;;;;;5053108;28;20029;-64
2021/07/10 13:16:42;;;;;;;8.63;3.67;;;;;;;;;;5053159;28;20025;-65
2021/07/10 13:19:08;;;;;;;8.60;3.97;;;;;;;;;;5035418;28;20033;-65
2021/07/10 13:21:34;;;;;;;7.47;4.07;;;;;;;;;;5041132;28;20309;-64
2021/07/10 13:24:00;;;;;;;5.82;3.53;;;;;;;;;;5048561;28;20286;-65
2021/07/10 13:26:30;;;;;;;7.03;3.60;;;;;;;;;;5048626;28;20028;-65
2021/07/10 13:29:01;;;;;;;6.35;3.67;;;;;;;;;;5049843;28;20024;-64
2021/07/10 13:31:37;;;;;;;8.77;4.95;;;;;;;;;;5043617;28;20027;-65
2021/07/10 13:34:16;;;;;;;5.82;3.08;;;;;;;;;;5048710;28;20017;-65
2021/07/10 13:36:42;;;;;;;4.90;3.28;;;;;;;;;;5032810;28;20413;-65
2021/07/10 13:39:12;;;;;;;6.07;3.50;;;;;;;;;;5032820;28;20029;-64
2021/07/10 13:41:48;;;;;;;4.72;4.20;;;;;;;;;;5033062;28;20378;-65
2021/07/10 13:44:15;;;;;;;5.43;3.65;;;;;;;;;;5032649;28;20035;-65
2021/07/10 13:46:43;;;;;;;4.18;3.40;;;;;;;;;;5035093;28;20040;-65
2021/07/10 13:49:27;;;;;;;6.85;3.78;;;;;;;;;;5051898;28;20024;-65
2021/07/10 13:51:54;;;;;;;7.05;3.75;;;;;;;;;;5040526;28;20215;-64
2021/07/10 13:54:30;;;;;;;6.15;4.00;;;;;;;;;;5032513;28;20628;-65
2021/07/10 13:57:07;;;;;;;5.70;3.35;;;;;;;;;;5031830;28;20021;-65
2021/07/10 13:59:33;;;;;;;8.38;3.90;;;;;;;;;;5045499;28;20029;-64
2021/07/10 14:01:58;;;;;;;4.10;3.10;;;;;;;;;;5052439;28;20044;-65
2021/07/10 14:04:23;;;;;;;6.83;3.90;;;;;;;;;;5050241;28;20099;-65
2021/07/10 14:06:48;;;;;;;8.37;4.67;;;;;;;;;;5039558;28;20037;-65
2021/07/10 14:09:14;;;;;;;6.87;3.73;;;;;;;;;;5036053;28;20045;-65
2021/07/10 14:11:40;;;;;;;8.32;4.07;;;;;;;;;;5031699;28;20018;-65
2021/07/10 14:14:05;;;;;;;10.90;4.32;;;;;;;;;;5050067;28;20394;-65
2021/07/10 14:16:31;;;;;;;5.47;3.67;;;;;;;;;;5051720;28;20025;-65
2021/07/10 14:18:56;;;;;;;7.28;3.58;;;;;;;;;;5051985;28;20064;-64
2021/07/10 14:21:21;;;;;;;7.90;4.23;;;;;;;;;;5043750;28;20052;-65
2021/07/10 14:23:46;;;;;;;8.53;4.57;;;;;;;;;;5044147;28;20029;-65
2021/07/10 14:26:12;;;;;;;5.57;3.80;;;;;;;;;;5045363;28;20608;-65
2021/07/10 14:28:37;;;;;;;7.20;4.80;;;;;;;;;;5051048;28;20029;-65